»·PEaware :: SKW588 KAMA-KDEN

SKW588 :: KAMA-KDEN

FLIGHT INFORMATION

Flight Status: Arrived
Operator:
SkyWest Airlines
More flights by this operator :: More flights under this callsign
Pilot: Anonymous 17611 (17611)
Aircraft: CANADAIR CL-600 CRJ-200
(CRJ2)
More flights by this aircraft type
Origin: KAMA Amarillo Intl
United States
Destination: KDEN Denver Intl
United States
More flights between these airports :: More routes between these airports
Route: +PNH ZIGEE BOSSS2
File this flight plan on PilotEdge
Remarks:
Altitude:
(Current/Filed)
32,000ft
Speed:
(Current/Filed)
391kts
Departed: 12-Jan-18 04:56 PM
Arrived: 12-Jan-18 06:02 PM
Distance/Time
Traveled:
311nm/1:06
Distance/Time
To Go:
Arrived

Flight Plot

Page will automatically refresh every two minutes.

Flight plan parsing failed; only flown route is shown


Map Options




Map Legend


Flown Route
Filed Route
Departure Airport
Arrival Airport
Navaid (VOR, NDB)
Fix

Horizontal Profiles

Position Reports

Time Latitude Longitude Heading Altitude Ground
Speed
12-Jan-18 16:33 35.218537 -101.706688 100 3611ft 0kts
12-Jan-18 16:34 35.218537 -101.706688 100 3611ft 0kts
12-Jan-18 16:35 35.218537 -101.706688 100 3611ft 0kts
12-Jan-18 16:36 35.218537 -101.706688 100 3611ft 0kts
12-Jan-18 16:37 35.218537 -101.706688 100 3611ft 0kts
12-Jan-18 16:38 35.218537 -101.706688 100 3611ft 0kts
12-Jan-18 16:39 35.218537 -101.706688 100 3611ft 0kts
12-Jan-18 16:40 35.218537 -101.706688 100 3611ft 0kts
12-Jan-18 16:41 35.218537 -101.706688 100 3611ft 0kts
12-Jan-18 16:42 35.218537 -101.706688 100 3611ft 0kts
12-Jan-18 16:43 35.218537 -101.706688 100 3611ft 0kts
12-Jan-18 16:44 35.218537 -101.706688 100 3611ft 0kts
12-Jan-18 16:45 35.218537 -101.706688 100 3611ft 0kts
12-Jan-18 16:46 35.218537 -101.706688 100 3611ft 0kts
12-Jan-18 16:47 35.218537 -101.706688 100 3611ft 0kts
12-Jan-18 16:48 35.218537 -101.706688 100 3611ft 0kts
12-Jan-18 16:49 35.218536 -101.706683 101 3611ft 0kts
12-Jan-18 16:50 35.218536 -101.706683 101 3611ft 0kts
12-Jan-18 16:51 35.218535 -101.706678 101 3611ft 0kts
12-Jan-18 16:52 35.218659 -101.707291 76 3611ft 2kts
12-Jan-18 16:53 35.218408 -101.707547 24 3611ft 0kts
12-Jan-18 16:54 35.218408 -101.707547 24 3611ft 0kts
12-Jan-18 16:55 35.218408 -101.707547 24 3611ft 0kts
12-Jan-18 16:56 35.219442 -101.707754 13 3611ft 12kts
12-Jan-18 16:57 35.222599 -101.705427 46 3611ft 12kts
12-Jan-18 16:58 35.225060 -101.702318 45 3611ft 14kts
12-Jan-18 16:59 35.228179 -101.698385 44 3611ft 16kts
12-Jan-18 17:00 35.229007 -101.697661 49 3611ft 0kts
12-Jan-18 17:01 35.229497 -101.696706 110 3611ft 13kts
12-Jan-18 17:02 35.209899 -101.675282 136 4373ft 170kts
12-Jan-18 17:03 35.162358 -101.626151 136 5959ft 262kts
12-Jan-18 17:04 35.153654 -101.552669 40 7326ft 260kts
12-Jan-18 17:05 35.224677 -101.537738 5 9889ft 270kts
12-Jan-18 17:06 35.299887 -101.529100 5 9991ft 281kts
12-Jan-18 17:07 35.375422 -101.517277 5 12687ft 281kts
12-Jan-18 17:08 35.451368 -101.503787 5 14008ft 283kts
12-Jan-18 17:09 35.535179 -101.488303 5 16007ft 327kts
12-Jan-18 17:10 35.626553 -101.470060 5 18453ft 343kts
12-Jan-18 17:11 35.721838 -101.448820 5 21991ft 358kts
12-Jan-18 17:12 35.821294 -101.424088 5 24998ft 377kts
12-Jan-18 17:13 35.923345 -101.419605 327 27656ft 370kts
12-Jan-18 17:14 35.991878 -101.513660 308 30213ft 377kts
12-Jan-18 17:15 36.053326 -101.606383 307 32217ft 387kts
12-Jan-18 17:16 36.121721 -101.709942 307 32271ft 403kts
12-Jan-18 17:17 36.192340 -101.817071 307 32273ft 406kts
12-Jan-18 17:18 36.263497 -101.925199 307 32273ft 407kts
12-Jan-18 17:19 36.334721 -102.033621 307 32264ft 406kts
12-Jan-18 17:20 36.405976 -102.142295 307 32251ft 407kts
12-Jan-18 17:21 36.477294 -102.251250 307 32219ft 408kts
12-Jan-18 17:22 36.574377 -102.323947 333 32246ft 419kts
12-Jan-18 17:23 36.682864 -102.376229 333 32264ft 419kts
12-Jan-18 17:24 36.791141 -102.427986 333 32293ft 419kts
12-Jan-18 17:25 36.899444 -102.479891 333 32302ft 419kts
12-Jan-18 17:26 37.008156 -102.532228 334 32286ft 420kts
12-Jan-18 17:27 37.114812 -102.583668 336 32278ft 425kts
12-Jan-18 17:28 37.224346 -102.636557 336 32270ft 431kts
12-Jan-18 17:29 37.330815 -102.688209 336 32267ft 432kts
12-Jan-18 17:30 37.440206 -102.741444 336 32258ft 432kts
12-Jan-18 17:31 37.551675 -102.789954 342 32260ft 432kts
12-Jan-18 17:32 37.665356 -102.825831 342 32257ft 436kts
12-Jan-18 17:33 37.779781 -102.861807 342 32255ft 437kts
12-Jan-18 17:34 37.894643 -102.898030 342 32254ft 437kts
12-Jan-18 17:35 38.010036 -102.934539 342 32253ft 437kts
12-Jan-18 17:36 38.122533 -102.970252 342 32259ft 437kts
12-Jan-18 17:37 38.238605 -103.007224 342 32262ft 436kts
12-Jan-18 17:38 38.354474 -103.044234 343 32263ft 435kts
12-Jan-18 17:39 38.470030 -103.081284 343 32265ft 434kts
12-Jan-18 17:40 38.571648 -103.150755 315 32273ft 426kts
12-Jan-18 17:41 38.646538 -103.253115 313 30143ft 391kts
12-Jan-18 17:42 38.718509 -103.353913 313 28729ft 379kts
12-Jan-18 17:43 38.788478 -103.452062 314 27294ft 368kts
12-Jan-18 17:44 38.854071 -103.544571 314 27276ft 338kts
12-Jan-18 17:45 38.918577 -103.636024 314 27278ft 358kts
12-Jan-18 17:46 38.985252 -103.730663 314 27281ft 365kts
12-Jan-18 17:47 39.052149 -103.825960 314 25767ft 357kts
12-Jan-18 17:48 39.116731 -103.918223 314 24487ft 344kts
12-Jan-18 17:49 39.179245 -104.007738 314 22028ft 336kts
12-Jan-18 17:50 39.240158 -104.095212 314 19385ft 324kts
12-Jan-18 17:51 39.275541 -104.191671 293 18117ft 240kts
12-Jan-18 17:52 39.294038 -104.271879 292 15631ft 231kts
12-Jan-18 17:53 39.311494 -104.348748 292 13876ft 216kts
12-Jan-18 17:54 39.328592 -104.423787 292 13880ft 227kts
12-Jan-18 17:55 39.346312 -104.499898 292 12037ft 219kts
12-Jan-18 17:56 39.362502 -104.568980 293 11965ft 225kts
12-Jan-18 17:57 39.401095 -104.614902 352 11954ft 204kts
12-Jan-18 17:58 39.456986 -104.620510 353 11483ft 220kts
12-Jan-18 17:59 39.510531 -104.619216 357 9574ft 211kts
12-Jan-18 18:00 39.559946 -104.630795 347 9131ft 152kts
12-Jan-18 18:01 39.603425 -104.646393 345 9274ft 155kts
12-Jan-18 18:02 39.644681 -104.659739 351 8622ft 164kts
12-Jan-18 18:03 39.689205 -104.662380 1 8126ft 160kts
12-Jan-18 18:04 39.733894 -104.661723 1 7277ft 135kts
12-Jan-18 18:05 39.769534 -104.661337 3 6587ft 126kts
12-Jan-18 18:06 39.806195 -104.660868 5 5912ft 140kts
12-Jan-18 18:07 39.840275 -104.660170 0 5440ft 85kts
12-Jan-18 18:08 39.853207 -104.659668 356 5439ft 21kts

Navigation Log

Ident Type
Flight plan parsing failed, navigation log unavailable